createdAt,value
2019-03-21T00:02:06.261Z,6.70
2019-03-21T00:04:34.641Z,5.80
2019-03-21T00:07:03.017Z,6.43
2019-03-21T00:09:31.400Z,5.80
2019-03-21T00:12:11.078Z,5.27
2019-03-21T00:14:57.596Z,5.80
2019-03-21T00:17:37.490Z,6.43
2019-03-21T00:20:16.694Z,5.87
2019-03-21T00:22:45.018Z,5.63
2019-03-21T00:25:21.625Z,5.20
2019-03-21T00:27:50.006Z,6.77
2019-03-21T00:30:23.731Z,5.50
2019-03-21T00:32:53.052Z,6.83
2019-03-21T00:35:21.438Z,5.80
2019-03-21T00:37:49.984Z,5.97
2019-03-21T00:40:24.234Z,5.63
2019-03-21T00:42:52.616Z,6.10
2019-03-21T00:45:21.002Z,5.27
2019-03-21T00:47:49.383Z,5.67
2019-03-21T00:50:20.956Z,5.30
2019-03-21T00:52:51.574Z,5.17
2019-03-21T00:55:20.031Z,5.83
2019-03-21T00:57:48.414Z,7.20
2019-03-21T01:00:20.134Z,6.10
2019-03-21T01:02:48.512Z,5.40
2019-03-21T01:05:16.904Z,5.57
2019-03-21T01:07:45.344Z,5.47
2019-03-21T01:10:16.775Z,5.53
2019-03-21T01:12:45.154Z,5.93
2019-03-21T01:15:13.718Z,6.10
2019-03-21T01:17:42.055Z,5.60
2019-03-21T01:20:16.687Z,6.30
2019-03-21T01:22:45.818Z,5.10
2019-03-21T01:25:36.744Z,5.40
2019-03-21T01:28:05.266Z,6.03
2019-03-21T01:30:33.642Z,5.40
2019-03-21T01:33:02.030Z,5.13
2019-03-21T01:35:30.399Z,5.27
2019-03-21T01:37:58.783Z,5.47
2019-03-21T01:40:30.207Z,4.80
2019-03-21T01:42:58.591Z,5.57
2019-03-21T01:45:27.233Z,5.70
2019-03-21T01:47:55.678Z,5.10
2019-03-21T01:50:28.848Z,6.07
2019-03-21T01:52:57.233Z,5.17
2019-03-21T01:55:25.604Z,4.20
2019-03-21T01:57:53.984Z,6.90
2019-03-21T02:00:33.884Z,4.60
2019-03-21T02:03:02.276Z,4.80
2019-03-21T02:05:30.665Z,4.90
2019-03-21T02:07:59.043Z,4.93
2019-03-21T02:10:27.411Z,5.17
2019-03-21T02:12:55.793Z,4.80
2019-03-21T02:15:25.033Z,4.70
2019-03-21T02:17:53.432Z,5.27
2019-03-21T02:20:22.738Z,5.03
2019-03-21T02:22:51.114Z,5.77
2019-03-21T02:25:22.289Z,5.10
2019-03-21T02:27:50.827Z,4.80
2019-03-21T02:30:21.744Z,5.00
2019-03-21T02:32:52.572Z,5.33
2019-03-21T02:35:20.940Z,5.27
2019-03-21T02:37:49.340Z,4.27
2019-03-21T02:40:20.594Z,4.23
2019-03-21T02:42:48.997Z,5.30
2019-03-21T02:45:17.424Z,4.10
2019-03-21T02:47:45.971Z,4.63
2019-03-21T02:50:26.042Z,4.12
2019-03-21T02:52:54.439Z,5.30
2019-03-21T02:55:23.441Z,4.40
2019-03-21T02:57:51.628Z,4.80
2019-03-21T03:00:22.919Z,6.20
2019-03-21T03:02:52.625Z,4.30
2019-03-21T03:05:26.219Z,4.77
2019-03-21T03:07:54.597Z,3.83
2019-03-21T03:10:38.048Z,4.90
2019-03-21T03:13:06.488Z,5.20
2019-03-21T03:15:36.306Z,4.40
2019-03-21T03:18:06.602Z,3.63
2019-03-21T03:20:34.982Z,4.40
2019-03-21T03:23:03.354Z,4.60
2019-03-21T03:25:31.731Z,5.13
2019-03-21T03:28:11.624Z,4.57
2019-03-21T03:30:39.998Z,4.80
2019-03-21T03:33:08.365Z,4.57
2019-03-21T03:35:36.744Z,4.60
2019-03-21T03:38:05.190Z,5.13
2019-03-21T03:41:03.548Z,4.23
2019-03-21T03:43:30.330Z,4.23
2019-03-21T03:45:58.716Z,4.00
2019-03-21T03:48:28.022Z,4.50
2019-03-21T03:50:56.404Z,4.60
2019-03-21T03:53:24.793Z,4.40
2019-03-21T03:55:53.165Z,4.93
2019-03-21T03:58:29.636Z,4.47
2019-03-21T04:00:58.193Z,5.10
2019-03-21T04:03:27.907Z,3.40
2019-03-21T04:05:56.490Z,4.50
2019-03-21T04:08:24.841Z,3.87
2019-03-21T04:10:54.547Z,4.90
2019-03-21T04:13:22.924Z,4.40
2019-03-21T04:15:53.663Z,3.47
2019-03-21T04:18:25.408Z,4.30
2019-03-21T04:20:57.165Z,4.70
2019-03-21T04:23:25.535Z,4.30
2019-03-21T04:26:03.047Z,4.70
2019-03-21T04:28:31.527Z,4.10
2019-03-21T04:31:00.156Z,4.40
2019-03-21T04:33:28.494Z,3.80
2019-03-21T04:35:56.870Z,3.57
2019-03-21T04:38:25.239Z,4.07
2019-03-21T04:40:53.622Z,4.90
2019-03-21T04:43:22.326Z,5.03
2019-03-21T04:45:50.704Z,3.20
2019-03-21T04:48:19.078Z,5.43
2019-03-21T04:50:47.461Z,3.47
2019-03-21T04:53:15.832Z,4.60
2019-03-21T04:55:44.207Z,4.30
2019-03-21T04:58:12.591Z,4.15
2019-03-21T05:00:45.653Z,4.97
2019-03-21T05:03:16.066Z,5.63
2019-03-21T05:05:44.436Z,3.13
2019-03-21T05:08:12.822Z,4.63
2019-03-21T05:10:41.191Z,4.10
2019-03-21T05:13:09.588Z,3.50
2019-03-21T05:15:40.518Z,3.40
2019-03-21T05:18:36.019Z,5.13
2019-03-21T05:21:07.635Z,4.10
2019-03-21T05:23:36.009Z,4.13
2019-03-21T05:26:04.401Z,3.93
2019-03-21T05:28:32.811Z,3.93
2019-03-21T05:31:06.905Z,4.33
2019-03-21T05:33:35.288Z,3.60
2019-03-21T05:36:03.731Z,3.90
2019-03-21T05:38:33.148Z,3.97
2019-03-21T05:41:01.522Z,4.53
2019-03-21T05:43:35.938Z,3.10
2019-03-21T05:46:04.307Z,3.63
2019-03-21T05:48:32.699Z,4.10
2019-03-21T05:51:02.697Z,3.93
2019-03-21T05:53:31.125Z,4.07
2019-03-21T05:55:59.501Z,3.80
2019-03-21T05:58:27.879Z,4.27
2019-03-21T06:01:08.039Z,5.10
2019-03-21T06:03:46.065Z,4.37
2019-03-21T06:06:17.478Z,4.17
2019-03-21T06:08:45.855Z,3.93
2019-03-21T06:11:14.237Z,3.77
2019-03-21T06:13:42.619Z,4.97
2019-03-21T06:16:11.357Z,4.40
2019-03-21T06:18:48.237Z,3.87
2019-03-21T06:21:44.539Z,4.70
2019-03-21T06:24:42.359Z,4.27
2019-03-21T06:27:16.534Z,5.00
2019-03-21T06:29:44.920Z,3.87
2019-03-21T06:32:13.298Z,5.07
2019-03-21T06:34:41.690Z,4.50
2019-03-21T06:37:10.054Z,5.17
2019-03-21T06:39:38.438Z,5.37
2019-03-21T06:42:06.801Z,3.77
2019-03-21T06:44:35.185Z,4.70
2019-03-21T06:47:03.556Z,4.93
2019-03-21T06:49:31.946Z,5.33
2019-03-21T06:52:00.319Z,4.40
2019-03-21T06:54:28.731Z,4.57
2019-03-21T06:56:57.176Z,4.47
2019-03-21T06:59:25.560Z,5.00
2019-03-21T07:01:53.924Z,5.17
2019-03-21T07:04:22.306Z,5.07
2019-03-21T07:06:50.691Z,5.13
2019-03-21T07:09:19.062Z,5.60
2019-03-21T07:11:47.440Z,4.53
2019-03-21T07:14:15.812Z,4.43
2019-03-21T07:16:44.199Z,5.27
2019-03-21T07:19:12.567Z,4.33
2019-03-21T07:21:40.982Z,4.90
2019-03-21T07:24:09.360Z,4.87
2019-03-21T07:26:38.458Z,5.33
2019-03-21T07:29:06.895Z,4.73
2019-03-21T07:31:35.314Z,4.17
2019-03-21T07:34:03.693Z,4.57
2019-03-21T07:36:32.086Z,4.00
2019-03-21T07:39:00.454Z,4.97
2019-03-21T07:41:28.878Z,6.37
2019-03-21T07:43:57.339Z,6.00
2019-03-21T07:46:25.688Z,4.83
2019-03-21T07:48:54.067Z,5.30
2019-03-21T07:51:22.492Z,5.87
2019-03-21T07:53:50.878Z,4.70
2019-03-21T07:56:19.303Z,5.20
2019-03-21T07:58:47.692Z,5.10
2019-03-21T08:01:16.097Z,4.37
2019-03-21T08:03:44.479Z,3.90
2019-03-21T08:06:12.881Z,4.60
2019-03-21T08:08:41.263Z,3.93
2019-03-21T08:11:09.689Z,3.63
2019-03-21T08:13:38.857Z,3.73
2019-03-21T08:16:07.274Z,4.20
2019-03-21T08:18:35.659Z,4.90
2019-03-21T08:21:04.075Z,4.13
2019-03-21T08:23:32.477Z,4.80
2019-03-21T08:26:00.879Z,4.80
2019-03-21T08:28:29.293Z,4.47
2019-03-21T08:31:09.414Z,5.60
2019-03-21T08:33:38.180Z,5.00
2019-03-21T08:36:06.658Z,4.80
2019-03-21T08:38:35.053Z,5.53
2019-03-21T08:41:03.526Z,3.90
2019-03-21T08:43:31.952Z,4.93
2019-03-21T08:46:00.363Z,4.60
2019-03-21T08:48:28.825Z,4.70
2019-03-21T08:51:07.565Z,5.17
2019-03-21T08:53:27.373Z,5.20
2019-03-21T08:55:55.771Z,5.40
2019-03-21T08:58:24.198Z,4.63
2019-03-21T09:00:52.585Z,7.07
2019-03-21T09:03:21.007Z,5.17
2019-03-21T09:05:49.395Z,4.90
2019-03-21T09:08:17.796Z,5.43
2019-03-21T09:10:46.195Z,6.27
2019-03-21T09:13:14.603Z,5.30
2019-03-21T09:15:43.005Z,5.13
2019-03-21T09:18:11.410Z,5.00
2019-03-21T09:20:39.805Z,5.20
2019-03-21T09:23:08.211Z,4.77
2019-03-21T09:25:36.636Z,5.23
2019-03-21T09:28:05.155Z,5.60
2019-03-21T09:30:33.555Z,5.17
2019-03-21T09:33:01.982Z,4.80
2019-03-21T09:35:30.438Z,4.93
2019-03-21T09:37:58.846Z,5.30
2019-03-21T09:40:27.242Z,4.97
2019-03-21T09:42:55.657Z,4.10
2019-03-21T09:45:24.049Z,4.40
2019-03-21T09:47:52.456Z,3.97
2019-03-21T09:50:29.581Z,5.23
2019-03-21T09:52:57.952Z,4.30
2019-03-21T09:55:26.404Z,5.40
2019-03-21T09:57:54.799Z,4.60
2019-03-21T10:00:31.157Z,5.07
2019-03-21T10:02:59.534Z,4.60
2019-03-21T10:05:28.843Z,4.13
2019-03-21T10:07:59.476Z,4.70
2019-03-21T10:10:29.334Z,3.80
2019-03-21T10:12:57.710Z,4.20
2019-03-21T10:15:26.085Z,4.53
2019-03-21T10:17:54.643Z,4.08
2019-03-21T10:20:23.016Z,3.63
2019-03-21T10:22:51.652Z,3.80
2019-03-21T10:25:20.160Z,4.57
2019-03-21T10:27:48.603Z,3.42
2019-03-21T10:30:34.336Z,4.20
2019-03-21T10:33:03.144Z,3.30
2019-03-21T10:35:32.698Z,3.90
2019-03-21T10:38:01.193Z,3.87
2019-03-21T10:40:29.577Z,3.50
2019-03-21T10:42:57.950Z,3.87
2019-03-21T10:45:26.351Z,4.07
2019-03-21T10:47:54.725Z,3.80
2019-03-21T10:50:42.676Z,3.23
2019-03-21T10:53:11.142Z,3.27
2019-03-21T10:55:40.230Z,3.70
2019-03-21T10:58:08.914Z,3.60
2019-03-21T11:00:37.475Z,3.57
2019-03-21T11:03:06.186Z,4.13
2019-03-21T11:05:34.732Z,3.90
2019-03-21T11:08:03.272Z,3.53
2019-03-21T11:10:31.656Z,3.47
2019-03-21T11:13:00.027Z,3.73
2019-03-21T11:15:28.651Z,3.40
2019-03-21T11:17:57.024Z,4.17
2019-03-21T11:20:33.433Z,3.90
2019-03-21T11:23:01.866Z,3.87
2019-03-21T11:25:30.595Z,3.73
2019-03-21T11:27:58.958Z,3.27
2019-03-21T11:30:35.419Z,3.50
2019-03-21T11:33:03.788Z,3.73
2019-03-21T11:35:32.165Z,3.43
2019-03-21T11:38:00.606Z,3.90
2019-03-21T11:40:28.995Z,3.47
2019-03-21T11:42:57.904Z,3.33
2019-03-21T11:45:26.456Z,4.10
2019-03-21T11:47:54.885Z,3.67
2019-03-21T11:50:23.263Z,4.33
2019-03-21T11:52:51.638Z,3.63
2019-03-21T11:55:20.129Z,3.30
2019-03-21T11:57:48.481Z,3.50
2019-03-21T12:00:17.087Z,3.10
2019-03-21T12:02:45.533Z,2.33
2019-03-21T12:05:13.973Z,3.07
2019-03-21T12:07:42.350Z,3.23
2019-03-21T12:10:12.014Z,2.97
2019-03-21T12:12:40.801Z,3.90
2019-03-21T12:15:11.210Z,3.30
2019-03-21T12:17:39.590Z,3.00
2019-03-21T12:20:10.100Z,2.30
2019-03-21T12:22:38.489Z,4.37
2019-03-21T12:25:07.909Z,3.93
2019-03-21T12:27:36.287Z,2.77
2019-03-21T12:30:07.580Z,4.43
2019-03-21T12:32:35.954Z,2.73
2019-03-21T12:35:06.665Z,2.73
2019-03-21T12:37:35.046Z,3.27
2019-03-21T12:40:05.399Z,3.00
2019-03-21T12:42:33.746Z,3.60
2019-03-21T12:45:02.120Z,3.03
2019-03-21T12:47:31.428Z,3.07
2019-03-21T12:50:00.315Z,3.20
2019-03-21T12:52:28.713Z,2.80
2019-03-21T12:54:57.088Z,3.10
2019-03-21T12:57:25.471Z,2.50
2019-03-21T12:59:53.838Z,2.70
2019-03-21T13:02:31.945Z,3.33
2019-03-21T13:04:52.324Z,2.50
2019-03-21T13:07:21.069Z,2.58
2019-03-21T13:09:49.655Z,2.77
2019-03-21T13:12:18.029Z,2.30
2019-03-21T13:14:46.404Z,2.40
2019-03-21T13:17:14.772Z,3.20
2019-03-21T13:19:43.513Z,2.50
2019-03-21T13:22:11.899Z,2.73
2019-03-21T13:24:40.316Z,2.37
2019-03-21T13:27:08.763Z,2.60
2019-03-21T13:29:37.141Z,3.13
2019-03-21T13:32:05.512Z,2.33
2019-03-21T13:34:33.954Z,2.60
2019-03-21T13:37:02.344Z,2.60
2019-03-21T13:39:30.720Z,2.43
2019-03-21T13:41:59.095Z,2.50
2019-03-21T13:44:27.470Z,2.50
2019-03-21T13:46:55.837Z,2.50
2019-03-21T13:49:24.219Z,2.67
2019-03-21T13:51:52.657Z,3.10
2019-03-21T13:54:21.036Z,2.73
2019-03-21T13:56:49.400Z,2.20
2019-03-21T13:59:17.779Z,2.33
2019-03-21T14:01:46.213Z,2.43
2019-03-21T14:04:14.599Z,2.00
2019-03-21T14:06:43.102Z,2.90
2019-03-21T14:09:11.823Z,2.83
2019-03-21T14:11:40.193Z,2.43
2019-03-21T14:14:08.576Z,2.40
2019-03-21T14:16:36.947Z,2.70
2019-03-21T14:19:05.323Z,2.47
2019-03-21T14:21:33.742Z,2.60
2019-03-21T14:24:02.263Z,2.40
2019-03-21T14:26:30.729Z,2.50
2019-03-21T14:28:59.247Z,2.60
2019-03-21T14:31:27.618Z,2.10
2019-03-21T14:33:55.994Z,2.20
2019-03-21T14:36:24.768Z,2.53
2019-03-21T14:38:53.148Z,1.97
2019-03-21T14:41:21.593Z,2.93
2019-03-21T14:43:49.966Z,2.50
2019-03-21T14:46:18.338Z,3.30
2019-03-21T14:48:46.927Z,2.60
2019-03-21T14:51:15.366Z,2.43
2019-03-21T14:53:43.743Z,2.60
2019-03-21T14:56:12.238Z,1.87
2019-03-21T14:58:40.675Z,2.30
2019-03-21T15:01:09.050Z,2.53
2019-03-21T15:03:37.653Z,2.20
2019-03-21T15:06:06.085Z,2.17
2019-03-21T15:08:34.449Z,2.30
2019-03-21T15:11:02.827Z,2.67
2019-03-21T15:13:31.389Z,2.37
2019-03-21T15:15:59.842Z,2.70
2019-03-21T15:18:28.362Z,2.30
2019-03-21T15:20:56.758Z,2.60
2019-03-21T15:23:26.038Z,2.40
2019-03-21T15:25:54.682Z,2.33
2019-03-21T15:28:23.221Z,2.73
2019-03-21T15:30:51.601Z,2.50
2019-03-21T15:33:19.973Z,2.30
2019-03-21T15:35:48.604Z,2.53
2019-03-21T15:38:17.056Z,2.53
2019-03-21T15:40:45.499Z,2.67
2019-03-21T15:43:13.867Z,2.40
2019-03-21T15:45:42.676Z,3.00
2019-03-21T15:48:11.073Z,2.50
2019-03-21T15:50:39.449Z,2.70
2019-03-21T15:53:08.047Z,2.53
2019-03-21T15:55:36.542Z,2.57
2019-03-21T15:58:05.090Z,2.23
2019-03-21T16:00:38.581Z,2.10
2019-03-21T16:03:08.301Z,2.50
2019-03-21T16:05:37.254Z,3.07
2019-03-21T16:08:08.743Z,2.60
2019-03-21T16:10:36.566Z,2.70
2019-03-21T16:13:05.280Z,3.20
2019-03-21T16:15:33.730Z,3.30
2019-03-21T16:18:02.106Z,3.23
2019-03-21T16:20:30.563Z,4.00
2019-03-21T16:22:58.937Z,4.00
2019-03-21T16:25:27.336Z,3.80
2019-03-21T16:27:55.784Z,3.67
2019-03-21T16:30:24.980Z,3.62
2019-03-21T16:32:53.361Z,3.90
2019-03-21T16:35:21.730Z,3.90
2019-03-21T16:37:50.121Z,3.33
2019-03-21T16:40:18.562Z,3.60
2019-03-21T16:42:47.019Z,5.43
2019-03-21T16:45:16.032Z,4.10
2019-03-21T16:47:44.479Z,8.07
2019-03-21T16:50:14.613Z,16.93
2019-03-21T16:52:43.162Z,30.73
2019-03-21T16:55:12.884Z,47.93
2019-03-21T16:57:41.277Z,40.87
2019-03-21T17:00:18.163Z,49.40
2019-03-21T17:02:47.382Z,36.60
2019-03-21T17:05:15.835Z,37.57
2019-03-21T17:07:44.221Z,36.87
2019-03-21T17:10:15.780Z,36.73
2019-03-21T17:12:44.273Z,35.40
2019-03-21T17:15:14.876Z,33.37
2019-03-21T17:17:43.741Z,34.48
2019-03-21T17:20:12.586Z,31.93
2019-03-21T17:22:41.070Z,31.83
2019-03-21T17:25:09.839Z,28.77
2019-03-21T17:27:38.490Z,30.10
2019-03-21T17:30:12.082Z,29.10
2019-03-21T17:32:40.482Z,28.20
2019-03-21T17:35:09.122Z,28.60
2019-03-21T17:37:37.508Z,29.20
2019-03-21T17:40:08.995Z,26.87
2019-03-21T17:42:37.367Z,27.23
2019-03-21T17:45:11.577Z,24.90
2019-03-21T17:47:40.310Z,23.97
2019-03-21T17:50:10.039Z,24.93
2019-03-21T17:52:38.414Z,23.10
2019-03-21T17:55:07.850Z,22.60
2019-03-21T17:57:36.226Z,21.40
2019-03-21T18:00:08.769Z,23.50
2019-03-21T18:02:37.278Z,21.60
2019-03-21T18:05:07.517Z,22.10
2019-03-21T18:07:35.885Z,20.43
2019-03-21T18:10:07.167Z,20.40
2019-03-21T18:12:35.756Z,19.23
2019-03-21T18:15:06.881Z,19.20
2019-03-21T18:17:35.227Z,15.70
2019-03-21T18:20:05.002Z,15.60
2019-03-21T18:22:33.386Z,15.10
2019-03-21T18:25:01.793Z,14.20
2019-03-21T18:27:30.165Z,14.00
2019-03-21T18:29:58.560Z,12.58
2019-03-21T18:32:26.951Z,12.90
2019-03-21T18:34:55.337Z,13.38
2019-03-21T18:37:23.752Z,13.40
2019-03-21T18:39:52.147Z,12.53
2019-03-21T18:42:20.554Z,12.63
2019-03-21T18:44:50.507Z,13.27
2019-03-21T18:47:18.988Z,12.20
2019-03-21T18:49:47.478Z,13.17
2019-03-21T18:52:15.863Z,12.43
2019-03-21T18:54:44.321Z,13.13
2019-03-21T18:57:12.701Z,12.30
2019-03-21T18:59:41.081Z,11.70
2019-03-21T19:02:09.472Z,12.17
2019-03-21T19:04:37.841Z,11.60
2019-03-21T19:07:06.352Z,11.53
2019-03-21T19:09:34.764Z,10.90
2019-03-21T19:12:03.197Z,9.87
2019-03-21T19:14:31.568Z,9.47
2019-03-21T19:16:59.981Z,11.07
2019-03-21T19:19:28.343Z,9.47
2019-03-21T19:21:56.752Z,10.03
2019-03-21T19:24:25.127Z,10.47
2019-03-21T19:26:53.518Z,9.28
2019-03-21T19:29:21.895Z,7.60
2019-03-21T19:31:50.285Z,9.50
2019-03-21T19:34:18.672Z,9.53
2019-03-21T19:36:47.050Z,9.50
2019-03-21T19:39:14.426Z,9.73
2019-03-21T19:41:42.778Z,8.80
2019-03-21T19:44:11.165Z,9.10
2019-03-21T19:46:39.763Z,10.00
2019-03-21T19:49:08.144Z,8.03
2019-03-21T19:51:36.527Z,9.80
2019-03-21T19:54:04.979Z,8.70
2019-03-21T19:56:33.367Z,9.63
2019-03-21T19:59:01.747Z,8.70
2019-03-21T20:01:30.206Z,8.30
2019-03-21T20:03:58.600Z,9.53
2019-03-21T20:06:26.962Z,8.80
2019-03-21T20:08:56.883Z,7.75
2019-03-21T20:11:25.410Z,8.40
2019-03-21T20:13:53.776Z,8.93
2019-03-21T20:16:22.155Z,7.77
2019-03-21T20:18:50.536Z,7.80
2019-03-21T20:21:18.904Z,8.40
2019-03-21T20:23:47.287Z,8.10
2019-03-21T20:26:15.663Z,7.93
2019-03-21T20:28:45.101Z,7.12
2019-03-21T20:31:13.476Z,8.27
2019-03-21T20:33:41.878Z,7.67
2019-03-21T20:36:10.263Z,8.00
2019-03-21T20:38:38.648Z,6.93
2019-03-21T20:41:07.038Z,7.00
2019-03-21T20:43:35.400Z,7.70
2019-03-21T20:46:03.780Z,8.23
2019-03-21T20:48:31.011Z,7.47
2019-03-21T20:50:59.445Z,7.10
2019-03-21T20:53:27.833Z,8.23
2019-03-21T20:55:56.204Z,6.77
2019-03-21T20:58:24.587Z,6.92
2019-03-21T21:00:52.964Z,8.13
2019-03-21T21:03:21.347Z,7.50
2019-03-21T21:05:49.728Z,6.80
2019-03-21T21:08:18.114Z,7.07
2019-03-21T21:10:46.498Z,6.97
2019-03-21T21:13:15.488Z,6.20
2019-03-21T21:15:43.884Z,10.60
2019-03-21T21:18:12.279Z,9.87
2019-03-21T21:20:40.674Z,10.00
2019-03-21T21:23:11.047Z,9.40
2019-03-21T21:25:39.155Z,8.63
2019-03-21T21:28:07.552Z,10.20
2019-03-21T21:30:35.931Z,9.83
2019-03-21T21:33:04.343Z,10.37
2019-03-21T21:35:32.776Z,8.77
2019-03-21T21:38:01.153Z,8.90
2019-03-21T21:40:32.670Z,8.77
2019-03-21T21:43:01.162Z,8.87
2019-03-21T21:45:29.556Z,9.23
2019-03-21T21:47:57.937Z,8.73
2019-03-21T21:50:26.326Z,9.70
2019-03-21T21:52:54.709Z,7.92
2019-03-21T21:55:23.098Z,9.70
2019-03-21T21:57:51.488Z,9.13
2019-03-21T22:00:23.049Z,9.20
2019-03-21T22:02:51.553Z,8.83
2019-03-21T22:05:19.946Z,8.90
2019-03-21T22:07:48.322Z,8.90
2019-03-21T22:10:17.304Z,9.00
2019-03-21T22:12:46.090Z,8.13
2019-03-21T22:15:15.561Z,9.40
2019-03-21T22:17:43.960Z,9.30
2019-03-21T22:20:14.712Z,8.20
2019-03-21T22:22:43.198Z,8.60
2019-03-21T22:25:11.960Z,9.60
2019-03-21T22:27:40.363Z,8.30
2019-03-21T22:30:19.343Z,8.50
2019-03-21T22:32:47.816Z,8.13
2019-03-21T22:35:16.292Z,8.47
2019-03-21T22:37:44.683Z,8.77
2019-03-21T22:40:15.110Z,6.20
2019-03-21T22:42:43.432Z,5.50
2019-03-21T22:45:16.588Z,5.00
2019-03-21T22:47:44.954Z,5.43
2019-03-21T22:50:19.081Z,5.87
2019-03-21T22:52:47.455Z,5.20
2019-03-21T22:55:16.454Z,6.10
2019-03-21T22:57:44.892Z,6.00
2019-03-21T23:00:16.313Z,5.97
2019-03-21T23:02:44.693Z,6.27
2019-03-21T23:05:13.618Z,5.30
2019-03-21T23:07:41.997Z,5.30
2019-03-21T23:10:11.312Z,5.60
2019-03-21T23:12:39.762Z,6.53
2019-03-21T23:15:12.631Z,5.20
2019-03-21T23:17:41.017Z,5.20
2019-03-21T23:20:16.487Z,4.70
2019-03-21T23:22:44.938Z,5.03
2019-03-21T23:25:16.469Z,5.33
2019-03-21T23:27:44.625Z,4.90
2019-03-21T23:30:15.229Z,4.53
2019-03-21T23:32:43.611Z,4.17
2019-03-21T23:35:12.116Z,4.43
2019-03-21T23:37:40.498Z,4.50
2019-03-21T23:40:11.399Z,5.83
2019-03-21T23:42:39.784Z,4.90
2019-03-21T23:45:09.698Z,4.40
2019-03-21T23:47:38.075Z,4.80
2019-03-21T23:50:09.181Z,4.47
2019-03-21T23:52:37.633Z,4.63
2019-03-21T23:55:07.635Z,5.50
2019-03-21T23:57:36.017Z,3.67
